createdAt,value
2022-10-31T00:00:10.298Z,2.25
2022-10-31T00:01:24.102Z,1.25
2022-10-31T00:02:26.163Z,1.15
2022-10-31T00:03:28.286Z,1.33
2022-10-31T00:04:30.172Z,1.75
2022-10-31T00:05:32.167Z,1.25
2022-10-31T00:06:34.037Z,0.60
2022-10-31T00:07:35.986Z,1.65
2022-10-31T00:08:38.210Z,1.10
2022-10-31T00:09:40.319Z,1.88
2022-10-31T00:10:43.545Z,1.73
2022-10-31T00:11:45.512Z,1.10
2022-10-31T00:12:47.422Z,1.17
2022-10-31T00:13:49.453Z,1.37
2022-10-31T00:14:51.196Z,2.55
2022-10-31T00:15:53.190Z,1.10
2022-10-31T00:16:55.270Z,1.27
2022-10-31T00:17:57.594Z,1.80
2022-10-31T00:19:03.645Z,1.65
2022-10-31T00:20:06.081Z,1.02
2022-10-31T00:21:08.019Z,1.15
2022-10-31T00:22:09.894Z,1.38
2022-10-31T00:23:12.662Z,1.40
2022-10-31T00:24:14.657Z,1.20
2022-10-31T00:25:16.651Z,1.70
2022-10-31T00:26:19.342Z,1.60
2022-10-31T00:27:21.271Z,1.58
2022-10-31T00:28:23.352Z,1.88
2022-10-31T00:29:25.328Z,1.58
2022-10-31T00:30:27.382Z,0.80
2022-10-31T00:31:29.759Z,1.20
2022-10-31T00:32:31.732Z,1.50
2022-10-31T00:33:38.669Z,1.45
2022-10-31T00:34:40.597Z,1.10
2022-10-31T00:35:43.042Z,1.08
2022-10-31T00:36:45.194Z,1.88
2022-10-31T00:37:48.950Z,0.90
2022-10-31T00:38:51.573Z,1.15
2022-10-31T00:39:53.523Z,1.38
2022-10-31T00:40:56.278Z,1.83
2022-10-31T00:41:58.297Z,1.63
2022-10-31T00:43:00.946Z,1.33
2022-10-31T00:44:03.212Z,1.42
2022-10-31T00:45:06.703Z,1.10
2022-10-31T00:46:08.617Z,1.30
2022-10-31T00:47:10.595Z,0.98
2022-10-31T00:48:14.181Z,1.45
2022-10-31T00:49:16.264Z,1.67
2022-10-31T00:50:18.485Z,1.27
2022-10-31T00:51:20.520Z,0.77
2022-10-31T00:52:22.526Z,1.27
2022-10-31T00:53:24.558Z,1.48
2022-10-31T00:54:26.462Z,1.73
2022-10-31T00:55:28.504Z,1.40
2022-10-31T00:56:30.391Z,0.80
2022-10-31T00:57:33.369Z,1.10
2022-10-31T00:58:35.363Z,1.30
2022-10-31T00:59:37.205Z,1.50
2022-10-31T01:00:39.267Z,1.70
2022-10-31T01:01:41.455Z,1.58
2022-10-31T01:02:43.901Z,0.85
2022-10-31T01:03:45.862Z,1.70
2022-10-31T01:04:48.425Z,1.27
2022-10-31T01:06:11.359Z,1.10
2022-10-31T01:07:15.078Z,1.90
2022-10-31T01:08:17.012Z,1.20
2022-10-31T01:09:20.220Z,1.48
2022-10-31T01:10:22.268Z,1.20
2022-10-31T01:11:25.474Z,1.10
2022-10-31T01:12:27.484Z,1.52
2022-10-31T01:13:29.589Z,1.98
2022-10-31T01:14:31.749Z,1.33
2022-10-31T01:15:33.511Z,1.00
2022-10-31T01:16:35.346Z,1.00
2022-10-31T01:17:37.327Z,1.92
2022-10-31T01:18:39.507Z,1.38
2022-10-31T01:19:44.327Z,1.60
2022-10-31T01:20:46.239Z,1.20
2022-10-31T01:21:48.526Z,1.05
2022-10-31T01:22:50.558Z,1.20
2022-10-31T01:23:55.210Z,1.45
2022-10-31T01:24:57.201Z,1.95
2022-10-31T01:26:02.974Z,1.45
2022-10-31T01:27:05.207Z,1.60
2022-10-31T01:28:09.440Z,0.80
2022-10-31T01:29:11.460Z,1.63
2022-10-31T01:30:13.486Z,1.58
2022-10-31T01:31:16.339Z,1.65
2022-10-31T01:32:18.382Z,1.75
2022-10-31T01:33:20.780Z,1.02
2022-10-31T01:34:22.885Z,2.30
2022-10-31T01:35:24.786Z,1.38
2022-10-31T01:36:34.945Z,1.52
2022-10-31T01:37:36.850Z,1.53
2022-10-31T01:38:38.809Z,1.52
2022-10-31T01:39:40.625Z,1.10
2022-10-31T01:40:42.949Z,1.38
2022-10-31T01:41:50.239Z,1.30
2022-10-31T01:42:52.231Z,1.55
2022-10-31T01:43:58.210Z,2.10
2022-10-31T01:45:02.284Z,3.00
2022-10-31T01:46:04.594Z,1.98
2022-10-31T01:47:08.143Z,2.00
2022-10-31T01:48:16.810Z,1.23
2022-10-31T01:49:35.382Z,1.50
2022-10-31T01:50:40.043Z,1.60
2022-10-31T01:51:56.679Z,1.48
2022-10-31T01:53:00.144Z,1.25
2022-10-31T01:54:07.603Z,1.17
2022-10-31T01:55:34.929Z,1.02
2022-10-31T01:56:41.995Z,0.95
2022-10-31T01:57:47.991Z,1.55
2022-10-31T01:58:54.671Z,1.90
2022-10-31T02:00:00.449Z,1.37
2022-10-31T02:01:06.877Z,1.55
2022-10-31T02:02:11.052Z,1.75
2022-10-31T02:03:13.618Z,2.17
2022-10-31T02:04:16.387Z,1.17
2022-10-31T02:05:22.826Z,1.20
2022-10-31T02:06:37.226Z,0.73
2022-10-31T02:07:53.071Z,1.63
2022-10-31T02:08:58.162Z,2.85
2022-10-31T02:10:02.015Z,2.25
2022-10-31T02:11:03.965Z,0.97
2022-10-31T02:12:06.839Z,1.13
2022-10-31T02:13:09.288Z,0.90
2022-10-31T02:14:19.813Z,1.63
2022-10-31T02:15:22.117Z,1.67
2022-10-31T02:16:24.664Z,3.13
2022-10-31T02:17:30.484Z,1.83
2022-10-31T02:18:33.337Z,1.30
2022-10-31T02:20:03.710Z,1.58
2022-10-31T02:21:12.891Z,1.85
2022-10-31T02:22:22.149Z,1.80
2022-10-31T02:24:01.382Z,2.00
2022-10-31T02:25:37.144Z,1.15
2022-10-31T02:26:57.671Z,1.45
2022-10-31T02:28:36.237Z,0.98
2022-10-31T02:29:53.132Z,0.85
2022-10-31T02:31:07.252Z,0.85
2022-10-31T02:32:22.432Z,1.95
2022-10-31T02:33:37.487Z,1.10
2022-10-31T02:35:11.069Z,1.10
2022-10-31T02:36:29.151Z,0.97
2022-10-31T02:37:46.592Z,1.15
2022-10-31T02:39:09.890Z,0.93
2022-10-31T02:40:40.983Z,0.52
2022-10-31T02:42:08.982Z,1.70
2022-10-31T02:43:36.971Z,1.27
2022-10-31T02:45:05.714Z,2.17
2022-10-31T02:46:19.623Z,1.92
2022-10-31T02:47:29.319Z,1.52
2022-10-31T02:48:33.909Z,1.38
2022-10-31T02:49:40.826Z,1.17
2022-10-31T02:50:52.499Z,1.33
2022-10-31T02:51:55.260Z,1.20
2022-10-31T02:52:57.273Z,1.88
2022-10-31T02:54:01.325Z,1.23
2022-10-31T02:55:27.624Z,2.33
2022-10-31T02:56:33.344Z,1.52
2022-10-31T02:57:37.951Z,0.90
2022-10-31T02:58:48.863Z,1.25
2022-10-31T02:59:55.501Z,1.58
2022-10-31T03:01:19.303Z,0.87
2022-10-31T03:02:21.521Z,1.55
2022-10-31T03:03:37.829Z,1.00
2022-10-31T03:04:43.479Z,1.00
2022-10-31T03:06:15.920Z,1.95
2022-10-31T03:07:36.409Z,1.55
2022-10-31T03:09:06.358Z,1.48
2022-10-31T03:10:24.560Z,1.60
2022-10-31T03:11:39.057Z,1.10
2022-10-31T03:13:04.320Z,1.58
2022-10-31T03:14:13.005Z,1.57
2022-10-31T03:15:29.911Z,1.77
2022-10-31T03:16:50.784Z,1.27
2022-10-31T03:17:58.646Z,1.23
2022-10-31T03:19:06.675Z,1.40
2022-10-31T03:20:12.014Z,1.75
2022-10-31T03:21:44.870Z,1.13
2022-10-31T03:22:48.084Z,1.42
2022-10-31T03:23:52.607Z,1.85
2022-10-31T03:24:57.100Z,1.20
2022-10-31T03:26:01.962Z,1.03
2022-10-31T03:27:07.475Z,1.52
2022-10-31T03:28:13.308Z,1.27
2022-10-31T03:29:18.491Z,1.75
2022-10-31T03:30:21.426Z,2.05
2022-10-31T03:31:35.145Z,1.30
2022-10-31T03:32:55.459Z,1.60
2022-10-31T03:34:00.867Z,2.17
2022-10-31T03:35:08.511Z,1.67
2022-10-31T03:36:14.174Z,1.25
2022-10-31T03:37:20.203Z,1.20
2022-10-31T03:38:23.383Z,1.15
2022-10-31T03:39:27.139Z,1.30
2022-10-31T03:40:30.192Z,1.35
2022-10-31T03:41:37.428Z,1.25
2022-10-31T03:42:44.311Z,1.48
2022-10-31T03:43:54.054Z,1.80
2022-10-31T03:45:21.354Z,1.30
2022-10-31T03:46:23.694Z,1.23
2022-10-31T03:47:26.432Z,1.17
2022-10-31T03:48:28.947Z,1.17
2022-10-31T03:49:32.559Z,1.20
2022-10-31T03:50:50.319Z,1.42
2022-10-31T03:52:16.393Z,1.70
2022-10-31T03:53:27.805Z,1.23
2022-10-31T03:54:55.716Z,1.63
2022-10-31T03:56:07.353Z,1.38
2022-10-31T03:57:15.583Z,1.92
2022-10-31T03:58:38.460Z,0.80
2022-10-31T03:59:46.162Z,1.42
2022-10-31T04:00:53.595Z,1.70
2022-10-31T04:02:00.394Z,2.35
2022-10-31T04:03:10.333Z,1.27
2022-10-31T04:04:14.550Z,1.20
2022-10-31T04:05:19.042Z,1.40
2022-10-31T04:06:24.101Z,1.52
2022-10-31T04:07:30.992Z,1.52
2022-10-31T04:08:37.894Z,1.45
2022-10-31T04:09:43.443Z,1.42
2022-10-31T04:10:49.445Z,1.95
2022-10-31T04:11:56.476Z,1.93
2022-10-31T04:14:26.947Z,1.38
2022-10-31T04:15:30.460Z,1.40
2022-10-31T04:16:34.224Z,1.50
2022-10-31T04:17:41.401Z,1.60
2022-10-31T04:18:43.342Z,1.00
2022-10-31T04:19:46.172Z,1.63
2022-10-31T04:20:50.959Z,1.60
2022-10-31T04:21:53.065Z,1.70
2022-10-31T04:22:55.710Z,1.00
2022-10-31T04:23:58.500Z,1.50
2022-10-31T04:25:03.140Z,1.30
2022-10-31T04:26:05.302Z,1.50
2022-10-31T04:27:07.835Z,1.58
2022-10-31T04:28:09.821Z,1.83
2022-10-31T04:29:11.708Z,1.35
2022-10-31T04:30:14.076Z,1.70
2022-10-31T04:31:17.056Z,1.42
2022-10-31T04:32:20.871Z,1.83
2022-10-31T04:33:22.818Z,1.50
2022-10-31T04:34:25.025Z,1.42
2022-10-31T04:35:27.777Z,1.20
2022-10-31T04:36:30.002Z,1.10
2022-10-31T04:37:33.611Z,1.45
2022-10-31T04:38:38.184Z,1.52
2022-10-31T04:39:48.337Z,1.60
2022-10-31T04:41:25.630Z,1.35
2022-10-31T04:42:37.133Z,1.40
2022-10-31T04:43:41.066Z,1.50
2022-10-31T04:44:43.108Z,2.10
2022-10-31T04:45:45.313Z,1.75
2022-10-31T04:46:48.549Z,1.35
2022-10-31T04:47:50.544Z,2.08
2022-10-31T04:48:54.758Z,1.88
2022-10-31T04:49:56.601Z,2.05
2022-10-31T04:51:01.877Z,1.25
2022-10-31T04:52:04.236Z,1.50
2022-10-31T04:53:06.472Z,1.10
2022-10-31T04:54:14.795Z,1.37
2022-10-31T04:55:22.576Z,0.88
2022-10-31T04:56:43.119Z,0.80
2022-10-31T04:57:51.819Z,1.95
2022-10-31T04:58:54.666Z,1.50
2022-10-31T04:59:57.797Z,1.85
2022-10-31T05:01:00.319Z,1.70
2022-10-31T05:02:02.246Z,1.33
2022-10-31T05:03:17.973Z,1.95
2022-10-31T05:04:19.891Z,1.58
2022-10-31T05:05:28.117Z,1.33
2022-10-31T05:06:30.294Z,1.50
2022-10-31T05:07:32.973Z,1.77
2022-10-31T05:08:35.107Z,1.95
2022-10-31T05:09:39.914Z,1.90
2022-10-31T05:10:42.155Z,1.30
2022-10-31T05:11:44.548Z,1.33
2022-10-31T05:13:18.706Z,1.52
2022-10-31T05:14:40.047Z,2.03
2022-10-31T05:16:15.695Z,1.48
2022-10-31T05:17:36.991Z,2.10
2022-10-31T05:19:08.184Z,1.77
2022-10-31T05:20:37.051Z,1.48
2022-10-31T05:21:51.563Z,1.85
2022-10-31T05:22:56.760Z,1.70
2022-10-31T05:23:58.821Z,1.23
2022-10-31T05:25:00.915Z,1.17
2022-10-31T05:26:02.786Z,1.48
2022-10-31T05:27:04.796Z,1.58
2022-10-31T05:28:06.692Z,1.77
2022-10-31T05:29:08.852Z,1.33
2022-10-31T05:30:13.981Z,1.80
2022-10-31T05:31:19.700Z,0.93
2022-10-31T05:32:21.713Z,1.67
2022-10-31T05:33:58.425Z,1.77
2022-10-31T05:35:33.874Z,2.13
2022-10-31T05:37:03.591Z,1.42
2022-10-31T05:38:06.717Z,1.80
2022-10-31T05:39:09.100Z,1.42
2022-10-31T05:40:17.459Z,1.65
2022-10-31T05:41:19.279Z,2.07
2022-10-31T05:42:22.851Z,1.23
2022-10-31T05:43:25.577Z,1.45
2022-10-31T05:44:28.309Z,2.03
2022-10-31T05:45:55.383Z,1.48
2022-10-31T05:47:15.882Z,2.25
2022-10-31T05:48:35.960Z,2.25
2022-10-31T05:50:04.680Z,1.60
2022-10-31T05:51:23.573Z,1.38
2022-10-31T05:52:26.357Z,1.20
2022-10-31T05:53:36.002Z,1.58
2022-10-31T05:54:37.957Z,2.10
2022-10-31T05:55:41.672Z,1.50
2022-10-31T05:56:47.497Z,1.73
2022-10-31T05:57:49.758Z,1.95
2022-10-31T05:58:52.194Z,2.28
2022-10-31T05:59:55.201Z,2.03
2022-10-31T06:00:59.226Z,2.33
2022-10-31T06:02:01.220Z,2.50
2022-10-31T06:03:21.697Z,2.10
2022-10-31T06:04:27.960Z,1.65
2022-10-31T06:05:30.470Z,1.77
2022-10-31T06:06:32.523Z,3.25
2022-10-31T06:07:36.023Z,2.20
2022-10-31T06:08:38.745Z,1.40
2022-10-31T06:09:45.628Z,2.00
2022-10-31T06:10:47.538Z,2.17
2022-10-31T06:11:53.042Z,1.33
2022-10-31T06:13:01.056Z,2.00
2022-10-31T06:14:21.142Z,1.70
2022-10-31T06:15:29.046Z,1.92
2022-10-31T06:16:31.916Z,1.88
2022-10-31T06:17:43.398Z,2.78
2022-10-31T06:18:58.299Z,2.15
2022-10-31T06:20:00.480Z,2.08
2022-10-31T06:21:02.888Z,2.47
2022-10-31T06:22:04.743Z,2.53
2022-10-31T06:23:08.223Z,2.50
2022-10-31T06:24:10.398Z,1.88
2022-10-31T06:25:35.915Z,1.85
2022-10-31T06:26:39.861Z,1.42
2022-10-31T06:27:42.699Z,2.13
2022-10-31T06:28:49.260Z,2.67
2022-10-31T06:30:20.789Z,2.53
2022-10-31T06:31:22.754Z,1.80
2022-10-31T06:32:24.849Z,1.75
2022-10-31T06:33:26.839Z,2.08
2022-10-31T06:34:31.956Z,2.17
2022-10-31T06:35:34.225Z,1.70
2022-10-31T06:36:36.368Z,0.98
2022-10-31T06:37:39.729Z,1.83
2022-10-31T06:38:59.140Z,1.77
2022-10-31T06:40:02.236Z,1.80
2022-10-31T06:41:08.496Z,1.23
2022-10-31T06:42:23.461Z,1.90
2022-10-31T06:43:25.616Z,2.13
2022-10-31T06:44:42.605Z,2.08
2022-10-31T06:46:16.986Z,1.87
2022-10-31T06:47:30.340Z,2.90
2022-10-31T06:48:53.511Z,2.80
2022-10-31T06:50:02.673Z,2.53
2022-10-31T06:51:04.670Z,2.50
2022-10-31T06:52:07.717Z,1.35
2022-10-31T06:54:12.522Z,1.45
2022-10-31T06:55:14.763Z,2.55
2022-10-31T06:56:16.561Z,1.73
2022-10-31T06:57:23.671Z,2.50
2022-10-31T06:58:25.615Z,2.30
2022-10-31T06:59:30.935Z,2.28
2022-10-31T07:01:02.677Z,2.08
2022-10-31T07:02:05.153Z,1.52
2022-10-31T07:03:12.662Z,2.63
2022-10-31T07:04:14.833Z,1.60
2022-10-31T07:05:16.783Z,1.17
2022-10-31T07:06:18.731Z,1.80
2022-10-31T07:07:22.675Z,2.45
2022-10-31T07:08:26.277Z,1.90
2022-10-31T07:09:28.320Z,1.88
2022-10-31T07:10:37.460Z,1.60
2022-10-31T07:11:43.084Z,1.67
2022-10-31T07:12:45.088Z,2.08
2022-10-31T07:13:46.876Z,2.30
2022-10-31T07:14:48.710Z,2.10
2022-10-31T07:15:50.463Z,2.33
2022-10-31T07:16:52.593Z,1.70
2022-10-31T07:18:04.785Z,1.70
2022-10-31T07:19:06.816Z,2.03
2022-10-31T07:20:09.752Z,2.22
2022-10-31T07:21:12.515Z,1.92
2022-10-31T07:22:15.491Z,1.70
2022-10-31T07:23:19.559Z,1.85
2022-10-31T07:24:29.046Z,2.65
2022-10-31T07:25:33.756Z,2.40
2022-10-31T07:26:40.782Z,1.83
2022-10-31T07:27:44.265Z,2.92
2022-10-31T07:28:49.156Z,1.60
2022-10-31T07:29:54.282Z,1.37
2022-10-31T07:30:58.434Z,3.10
2022-10-31T07:32:00.318Z,1.88
2022-10-31T07:33:06.299Z,1.92
2022-10-31T07:34:27.008Z,1.65
2022-10-31T07:36:04.625Z,2.50
2022-10-31T07:37:07.759Z,2.28
2022-10-31T07:38:13.246Z,1.85
2022-10-31T07:39:15.166Z,1.58
2022-10-31T07:40:19.187Z,2.25
2022-10-31T07:41:22.445Z,1.60
2022-10-31T07:42:24.531Z,1.80
2022-10-31T07:45:30.074Z,1.75
2022-10-31T07:47:04.277Z,1.02
2022-10-31T07:48:24.656Z,1.75
2022-10-31T07:53:11.338Z,1.67
2022-10-31T07:54:30.866Z,1.73
2022-10-31T07:55:33.498Z,1.97
2022-10-31T07:56:35.358Z,2.05
2022-10-31T07:57:37.878Z,2.00
2022-10-31T07:58:39.705Z,1.45
2022-10-31T07:59:41.615Z,3.58
2022-10-31T08:00:46.058Z,2.80
2022-10-31T08:01:51.193Z,1.73
2022-10-31T08:03:15.767Z,2.15
2022-10-31T08:04:38.376Z,2.85
2022-10-31T08:05:59.412Z,2.58
2022-10-31T08:07:01.330Z,2.23
2022-10-31T08:08:10.118Z,2.13
2022-10-31T08:09:13.106Z,1.55
2022-10-31T08:10:15.726Z,2.67
2022-10-31T08:11:17.520Z,2.08
2022-10-31T08:12:19.944Z,2.08
2022-10-31T08:13:22.166Z,2.25
2022-10-31T08:14:27.656Z,1.38
2022-10-31T08:15:32.181Z,1.88
2022-10-31T08:16:34.108Z,3.03
2022-10-31T08:17:41.408Z,2.93
2022-10-31T08:18:45.935Z,2.75
2022-10-31T08:19:50.481Z,2.38
2022-10-31T08:20:55.094Z,2.08
2022-10-31T08:21:56.926Z,1.92
2022-10-31T08:23:01.736Z,2.20
2022-10-31T08:24:03.816Z,1.52
2022-10-31T08:25:06.114Z,2.08
2022-10-31T08:26:08.592Z,2.78
2022-10-31T08:27:10.525Z,3.13
2022-10-31T08:28:15.195Z,2.47
2022-10-31T08:29:19.036Z,2.50
2022-10-31T08:30:27.584Z,1.80
2022-10-31T08:31:49.414Z,2.35
2022-10-31T08:33:15.567Z,2.13
2022-10-31T08:34:36.150Z,2.90
2022-10-31T08:35:59.147Z,1.98
2022-10-31T08:37:20.981Z,2.75
2022-10-31T08:38:28.155Z,2.00
2022-10-31T08:39:30.492Z,2.40
2022-10-31T08:40:36.557Z,4.83
2022-10-31T08:41:38.754Z,3.05
2022-10-31T08:42:45.143Z,2.17
2022-10-31T08:43:47.777Z,2.75
2022-10-31T08:44:50.933Z,3.03
2022-10-31T08:45:56.229Z,2.13
2022-10-31T08:47:03.403Z,2.55
2022-10-31T08:48:12.254Z,3.45
2022-10-31T08:49:14.911Z,2.28
2022-10-31T08:50:19.064Z,2.75
2022-10-31T08:51:22.301Z,2.30
2022-10-31T08:52:51.131Z,2.75
2022-10-31T08:53:49.573Z,2.85
2022-10-31T08:55:09.551Z,2.53
2022-10-31T08:56:37.342Z,2.85
2022-10-31T08:57:47.214Z,2.72
2022-10-31T08:58:49.263Z,2.25
2022-10-31T08:59:52.460Z,2.30
2022-10-31T09:01:26.548Z,2.90
2022-10-31T09:02:28.765Z,2.33
2022-10-31T09:03:36.197Z,2.40
2022-10-31T09:04:39.955Z,2.70
2022-10-31T09:05:42.312Z,2.42
2022-10-31T09:07:07.855Z,3.00
2022-10-31T09:08:15.661Z,3.15
2022-10-31T09:09:18.838Z,3.17
2022-10-31T09:10:21.652Z,2.95
2022-10-31T09:11:23.765Z,2.53
2022-10-31T09:12:45.032Z,2.53
2022-10-31T09:14:05.807Z,2.80
2022-10-31T09:15:27.814Z,3.03
2022-10-31T09:16:55.327Z,3.25
2022-10-31T09:18:04.886Z,2.75
2022-10-31T09:19:14.800Z,2.90
2022-10-31T09:20:21.903Z,2.65
2022-10-31T09:21:26.697Z,3.75
2022-10-31T09:22:28.851Z,2.72
2022-10-31T09:23:31.065Z,2.38
2022-10-31T09:24:34.907Z,2.97
2022-10-31T09:25:39.059Z,3.67
2022-10-31T09:27:03.769Z,3.27
2022-10-31T09:28:08.735Z,2.67
2022-10-31T09:29:10.779Z,2.25
2022-10-31T09:30:14.026Z,3.67
2022-10-31T09:31:16.116Z,3.25
2022-10-31T09:32:30.988Z,2.63
2022-10-31T09:33:33.201Z,2.78
2022-10-31T09:34:54.504Z,3.10
2022-10-31T09:35:59.528Z,3.10
2022-10-31T09:37:01.518Z,3.45
2022-10-31T09:38:09.636Z,2.60
2022-10-31T09:39:11.453Z,2.40
2022-10-31T09:40:13.990Z,3.22
2022-10-31T09:41:32.360Z,2.65
2022-10-31T09:42:46.938Z,2.63
2022-10-31T09:44:08.912Z,2.85
2022-10-31T09:45:26.179Z,2.65
2022-10-31T09:46:42.315Z,3.38
2022-10-31T09:47:49.849Z,3.22
2022-10-31T09:50:04.007Z,2.35
2022-10-31T09:51:11.747Z,2.90
2022-10-31T09:52:28.300Z,2.47
2022-10-31T09:53:33.464Z,3.15
2022-10-31T09:54:48.511Z,3.80
2022-10-31T09:55:52.027Z,2.67
2022-10-31T09:56:54.569Z,2.47
2022-10-31T09:57:57.258Z,3.22
2022-10-31T09:59:03.804Z,2.53
2022-10-31T10:00:16.348Z,2.92
2022-10-31T10:01:26.943Z,2.83
2022-10-31T10:02:42.906Z,2.20
2022-10-31T10:03:48.124Z,2.75
2022-10-31T10:05:42.755Z,2.72
2022-10-31T10:06:53.070Z,2.60
2022-10-31T10:08:20.536Z,3.90
2022-10-31T10:09:54.422Z,1.95
2022-10-31T10:11:31.098Z,2.33
2022-10-31T10:13:06.427Z,2.35
2022-10-31T10:14:29.675Z,3.10
2022-10-31T10:15:31.462Z,2.78
2022-10-31T10:16:53.525Z,3.20
2022-10-31T10:18:18.571Z,2.33
2022-10-31T10:19:50.004Z,3.03
2022-10-31T10:21:07.451Z,2.80
2022-10-31T10:22:25.207Z,1.60
2022-10-31T10:23:36.991Z,2.17
2022-10-31T10:25:16.090Z,2.75
2022-10-31T10:26:20.881Z,3.33
2022-10-31T10:27:43.027Z,3.03
2022-10-31T10:29:04.942Z,3.72
2022-10-31T10:30:16.161Z,1.97
2022-10-31T10:31:28.677Z,2.50
2022-10-31T10:32:36.394Z,2.50
2022-10-31T10:34:07.041Z,3.00
2022-10-31T10:35:20.084Z,2.83
2022-10-31T10:36:29.219Z,3.28
2022-10-31T10:37:42.211Z,2.30
2022-10-31T10:38:47.124Z,3.17
2022-10-31T10:39:53.991Z,3.13
2022-10-31T10:40:56.297Z,2.53
2022-10-31T10:42:18.437Z,2.27
2022-10-31T10:43:20.343Z,4.20
2022-10-31T10:44:22.225Z,1.58
2022-10-31T10:45:42.393Z,2.17
2022-10-31T10:47:14.903Z,3.95
2022-10-31T10:48:29.140Z,3.17
2022-10-31T10:49:53.979Z,2.22
2022-10-31T10:50:55.815Z,3.30
2022-10-31T10:52:19.322Z,2.33
2022-10-31T10:54:07.842Z,2.45
2022-10-31T10:55:29.767Z,1.80
2022-10-31T10:56:53.239Z,2.22
2022-10-31T10:58:18.818Z,2.45
2022-10-31T10:59:23.267Z,2.88
2022-10-31T11:00:42.574Z,2.75
2022-10-31T11:01:45.305Z,3.15
2022-10-31T11:02:49.131Z,2.03
2022-10-31T11:03:51.467Z,2.33
2022-10-31T11:05:00.663Z,2.28
2022-10-31T11:06:03.166Z,2.30
2022-10-31T11:07:10.920Z,2.07
2022-10-31T11:08:27.380Z,2.65
2022-10-31T11:09:29.802Z,2.72
2022-10-31T11:10:32.103Z,1.88
2022-10-31T11:11:34.066Z,2.83
2022-10-31T11:12:35.843Z,2.03
2022-10-31T11:13:41.137Z,3.30
2022-10-31T11:15:17.852Z,3.03
2022-10-31T11:16:28.710Z,3.22
2022-10-31T11:17:33.171Z,2.97
2022-10-31T11:18:47.872Z,3.20
2022-10-31T11:19:59.997Z,2.95
2022-10-31T11:21:05.370Z,4.80
2022-10-31T11:22:17.559Z,2.08
2022-10-31T11:23:21.511Z,2.70
2022-10-31T11:24:28.497Z,2.35
2022-10-31T11:25:30.349Z,3.67
2022-10-31T11:26:32.461Z,4.15
2022-10-31T11:27:34.308Z,3.13
2022-10-31T11:28:36.213Z,2.60
2022-10-31T11:29:38.203Z,2.40
2022-10-31T11:30:58.127Z,2.70
2022-10-31T11:32:01.898Z,2.97
2022-10-31T11:33:05.036Z,2.20
2022-10-31T11:34:16.059Z,2.83
2022-10-31T11:35:20.029Z,2.33
2022-10-31T11:36:44.030Z,2.25
2022-10-31T11:37:47.788Z,3.22
2022-10-31T11:38:50.374Z,2.55
2022-10-31T11:39:59.241Z,2.22
2022-10-31T11:41:07.130Z,3.53
2022-10-31T11:42:09.326Z,2.65
2022-10-31T11:43:18.588Z,3.00
2022-10-31T11:44:28.483Z,4.10
2022-10-31T11:45:34.745Z,2.78
2022-10-31T11:46:55.497Z,3.35
2022-10-31T11:48:00.055Z,2.97
2022-10-31T11:49:03.781Z,3.38
2022-10-31T11:50:12.998Z,3.78
2022-10-31T11:51:26.741Z,3.70
2022-10-31T11:52:33.435Z,3.83
2022-10-31T11:53:36.068Z,3.50
2022-10-31T11:54:59.392Z,2.90
2022-10-31T11:56:13.362Z,2.42
2022-10-31T11:57:27.116Z,3.92
2022-10-31T11:58:29.049Z,2.95
2022-10-31T11:59:32.552Z,3.47
2022-10-31T12:00:38.930Z,2.75
2022-10-31T12:01:47.268Z,3.17
2022-10-31T12:02:49.383Z,3.05
2022-10-31T12:04:03.521Z,3.27
2022-10-31T12:05:19.091Z,3.13
2022-10-31T12:06:30.484Z,2.83
2022-10-31T12:07:32.488Z,2.60
2022-10-31T12:08:38.742Z,2.45
2022-10-31T12:09:42.166Z,3.50
2022-10-31T12:11:04.189Z,2.47
2022-10-31T12:12:30.716Z,3.58
2022-10-31T12:13:49.376Z,5.05
2022-10-31T12:15:16.661Z,3.08
2022-10-31T12:16:57.025Z,3.37
2022-10-31T12:18:01.832Z,3.55
2022-10-31T12:19:21.173Z,3.00
2022-10-31T12:20:42.737Z,3.83
2022-10-31T12:21:54.322Z,4.68
2022-10-31T12:23:19.079Z,3.13
2022-10-31T12:24:32.582Z,3.13
2022-10-31T12:26:11.498Z,2.95
2022-10-31T12:27:18.451Z,2.30
2022-10-31T12:28:56.806Z,2.50
2022-10-31T12:30:19.525Z,4.60
2022-10-31T12:31:48.044Z,3.83
2022-10-31T12:32:55.606Z,3.20
2022-10-31T12:34:16.203Z,3.17
2022-10-31T12:36:01.375Z,2.40
2022-10-31T12:37:17.870Z,3.17
2022-10-31T12:38:55.554Z,2.83
2022-10-31T12:40:22.148Z,3.60
2022-10-31T12:41:49.376Z,2.97
2022-10-31T12:43:24.368Z,2.88
2022-10-31T12:45:01.634Z,2.87
2022-10-31T12:46:26.814Z,3.95
2022-10-31T12:47:50.729Z,4.53
2022-10-31T12:49:07.162Z,3.33
2022-10-31T12:50:15.493Z,3.40
2022-10-31T12:51:47.168Z,3.42
2022-10-31T12:53:13.966Z,4.13
2022-10-31T12:54:47.924Z,3.83
2022-10-31T12:56:06.371Z,4.43
2022-10-31T12:57:24.965Z,3.05
2022-10-31T12:58:46.718Z,3.83
2022-10-31T13:00:15.208Z,3.08
2022-10-31T13:01:18.702Z,3.25
2022-10-31T13:02:45.390Z,4.03
2022-10-31T13:03:47.392Z,4.60
2022-10-31T13:05:12.200Z,3.35
2022-10-31T13:06:30.559Z,2.75
2022-10-31T13:07:44.859Z,3.45
2022-10-31T13:08:52.153Z,4.88
2022-10-31T13:10:06.997Z,4.38
2022-10-31T13:11:20.779Z,3.10
2022-10-31T13:12:25.300Z,5.18
2022-10-31T13:13:40.824Z,3.40
2022-10-31T13:14:55.762Z,3.75
2022-10-31T13:16:03.686Z,3.65
2022-10-31T13:17:06.417Z,3.72
2022-10-31T13:18:33.092Z,3.67
2022-10-31T13:19:41.254Z,3.33
2022-10-31T13:20:51.494Z,3.72
2022-10-31T13:22:02.035Z,2.53
2022-10-31T13:23:29.903Z,3.57
2022-10-31T13:24:49.845Z,2.88
2022-10-31T13:25:57.892Z,4.57
2022-10-31T13:27:04.003Z,3.17
2022-10-31T13:28:27.595Z,3.63
2022-10-31T13:29:56.424Z,2.97
2022-10-31T13:30:58.356Z,4.10
2022-10-31T13:32:06.013Z,4.25
2022-10-31T13:33:17.316Z,3.58
2022-10-31T13:34:31.501Z,3.85
2022-10-31T13:35:56.296Z,3.70
2022-10-31T13:37:06.575Z,3.13
2022-10-31T13:38:51.830Z,3.85
2022-10-31T13:40:23.268Z,3.67
2022-10-31T13:42:14.473Z,3.88
2022-10-31T13:44:03.062Z,3.85
2022-10-31T13:45:16.742Z,2.97
2022-10-31T13:46:44.178Z,2.50
2022-10-31T13:48:14.741Z,3.70
2022-10-31T13:49:31.946Z,3.15
2022-10-31T13:50:34.366Z,3.60
2022-10-31T13:51:36.346Z,3.20
2022-10-31T13:52:39.082Z,4.60
2022-10-31T13:53:45.986Z,2.88
2022-10-31T13:54:56.793Z,3.78
2022-10-31T13:56:21.537Z,4.15
2022-10-31T13:57:34.734Z,3.08
2022-10-31T13:58:37.849Z,4.30
2022-10-31T13:59:40.137Z,4.63
2022-10-31T14:00:42.750Z,4.13
2022-10-31T14:01:52.563Z,5.73
2022-10-31T14:02:58.054Z,4.43
2022-10-31T14:04:19.279Z,3.53
2022-10-31T14:05:35.469Z,4.63
2022-10-31T14:07:07.736Z,2.92
2022-10-31T14:08:21.608Z,3.45
2022-10-31T14:09:40.005Z,3.35
2022-10-31T14:10:49.429Z,3.72
2022-10-31T14:11:52.282Z,6.38
2022-10-31T14:13:04.708Z,3.25
2022-10-31T14:14:13.555Z,3.90
2022-10-31T14:15:25.927Z,4.63
2022-10-31T14:16:32.827Z,2.88
2022-10-31T14:18:03.388Z,3.47
2022-10-31T14:19:15.144Z,3.40
2022-10-31T14:20:17.128Z,3.10
2022-10-31T14:21:25.349Z,3.60
2022-10-31T14:22:32.622Z,2.70
2022-10-31T14:23:43.388Z,2.78
2022-10-31T14:24:45.291Z,4.22
2022-10-31T14:25:47.042Z,3.17
2022-10-31T14:26:54.641Z,3.05
2022-10-31T14:27:58.339Z,5.25
2022-10-31T14:29:01.766Z,3.03
2022-10-31T14:30:17.248Z,4.65
2022-10-31T14:31:37.442Z,3.65
2022-10-31T14:32:39.339Z,2.95
2022-10-31T14:33:43.552Z,3.38
2022-10-31T14:34:51.218Z,4.15
2022-10-31T14:36:08.081Z,3.90
2022-10-31T14:37:39.503Z,2.53
2022-10-31T14:39:20.160Z,2.83
2022-10-31T14:40:40.723Z,3.58
2022-10-31T14:41:42.495Z,4.70
2022-10-31T14:43:17.390Z,3.30
2022-10-31T14:44:41.649Z,3.28
2022-10-31T14:46:04.614Z,3.60
2022-10-31T14:47:42.066Z,3.60
2022-10-31T14:49:03.959Z,3.90
2022-10-31T14:50:29.076Z,3.72
2022-10-31T14:51:40.596Z,3.73
2022-10-31T14:52:50.498Z,5.20
2022-10-31T14:53:57.236Z,3.05
2022-10-31T14:55:01.721Z,3.13
2022-10-31T14:56:06.844Z,3.67
2022-10-31T14:57:19.990Z,2.20
2022-10-31T14:58:39.475Z,2.80
2022-10-31T14:59:48.033Z,2.65
2022-10-31T15:00:55.268Z,4.93
2022-10-31T15:02:00.832Z,2.67
2022-10-31T15:03:13.297Z,3.17
2022-10-31T15:04:24.594Z,4.57
2022-10-31T15:05:28.518Z,2.42
2022-10-31T15:06:49.960Z,3.65
2022-10-31T15:07:59.368Z,3.78
2022-10-31T15:09:01.139Z,1.95
2022-10-31T15:10:07.288Z,2.80
2022-10-31T15:11:23.074Z,2.22
2022-10-31T15:12:31.038Z,3.17
2022-10-31T15:13:32.897Z,2.70
2022-10-31T15:14:35.738Z,3.93
2022-10-31T15:15:38.524Z,4.18
2022-10-31T15:16:43.761Z,3.78
2022-10-31T15:17:50.235Z,3.95
2022-10-31T15:19:06.071Z,2.53
2022-10-31T15:20:08.733Z,3.63
2022-10-31T15:21:12.604Z,3.28
2022-10-31T15:22:20.707Z,3.00
2022-10-31T15:23:30.744Z,3.88
2022-10-31T15:24:36.415Z,2.97
2022-10-31T15:25:38.206Z,2.90
2022-10-31T15:26:41.737Z,4.75
2022-10-31T15:27:43.727Z,3.65
2022-10-31T15:28:46.306Z,3.65
2022-10-31T15:29:57.637Z,2.65
2022-10-31T15:31:02.004Z,4.00
2022-10-31T15:32:29.330Z,5.15
2022-10-31T15:33:47.924Z,3.47
2022-10-31T15:34:52.356Z,4.55
2022-10-31T15:36:02.017Z,3.45
2022-10-31T15:37:04.400Z,3.83
2022-10-31T15:38:09.357Z,5.45
2022-10-31T15:39:12.573Z,3.38
2022-10-31T15:40:20.172Z,2.92
2022-10-31T15:41:34.370Z,4.60